ADDS METAR Data INFO
IDs: Format: Raw Decoded Include TAF

Data at: 1011 UTC 22 May 2018

KPBI 220953Z 12013KT 10SM -RA SCT026 BKN070 BKN110 24/23 A3004 RMK AO2 SLP171 P0021 T02440228
KPBI 220923Z 15005KT 10SM -RA SCT028 BKN055 BKN090 23/22 A3003 RMK AO2 P0021 T02280222
KPBI 220907Z 17008G21KT 3SM R10L/3500VP6000FT -RA BR BKN024 BKN039 OVC075 23/22 A3003 RMK AO2 P0020 T02280222
KPBI 220859Z 17016G21KT 1 1/2SM R10L/3500VP6000FT +RA BR SCT021 BKN030 OVC049 22/21 A3003 RMK AO2 P0005 T02220211
KPBI 220853Z 16015KT 2SM R10L/6000VP6000FT +RA BR SCT021 BKN034 OVC100 22/21 A3003 RMK AO2 PK WND 13027/0834 RAB0758 SLP170 P0010 60010 T02220206 55003
KPBI 220843Z 16014G27KT 2SM +RA BR SCT021 BKN031 OVC100 23/21 A3003 RMK AO2 PK WND 13027/0834 RAB0758 P0010 T02280211
KPBI 220836Z 16020G27KT 1 1/2SM +RA BR SCT018 BKN033 OVC100 24/23 A3003 RMK AO2 PK WND 13027/0834 RAB0758 P0000 T02440228
KPBI 220753Z 13010KT 10SM SCT024 SCT050 BKN060 25/23 A3002 RMK AO2 SLP166 T02500228
KPBI 220653Z 13011KT 10SM SCT020 BKN032 BKN120 25/23 A3003 RMK AO2 SLP169 T02500228
KPBI 220553Z 12016KT 10SM SCT020 BKN032 BKN120 24/22 A3005 RMK AO2 RAB41E53 SLP173 P0000 60000 T02440217 10261 20244 58012
KPBI 220453Z 13011KT 10SM SCT020 SCT026 BKN120 26/23 A3007 RMK AO2 RAB27E37 SLP181 P0000 T02560228 402890217
KPBI 220353Z 12010KT 10SM SCT020 SCT026 BKN120 26/23 A3009 RMK AO2 SLP187 T02560228
KPBI 220253Z 12014KT 10SM SCT019 SCT029 BKN120 26/23 A3008 RMK AO2 SLP185 T02560228 53010
KPBI 220153Z 12013KT 10SM FEW023 SCT034 BKN110 26/23 A3007 RMK AO2 SLP181 T02560228
KPBI 220053Z 11014KT 10SM SCT026 SCT034 BKN110 26/23 A3006 RMK AO2 SLP177 T02560228
KPBI 212353Z 12012KT 10SM SCT026 SCT034 BKN100 26/22 A3005 RMK AO2 SLP175 T02610222 10278 20261 53000
KPBI 212253Z 12013KT 10SM SCT022 SCT032 BKN150 26/23 A3004 RMK AO2 SLP173 T02610228
KPBI 212153Z 12014KT 10SM SCT024 BKN035 BKN150 27/23 A3004 RMK AO2 SLP172 CB DSNT NE T02670228
KPBI 212053Z 13015KT 10SM SCT028 SCT034 BKN120 27/22 A3005 RMK AO2 SLP175 CB DSNT NE NW T02670222 58009
KPBI 211953Z 13013KT 10SM SCT027 BKN120 27/22 A3006 RMK AO2 SLP177 CB DSNT N NW T02670217
KPBI 211853Z 13017KT 10SM SCT025 SCT031 BKN110 27/22 A3007 RMK AO2 SLP182 CB DSNT N-E W T02720222
KPBI 211753Z 13016KT 10SM SCT025 SCT032 BKN120 28/22 A3008 RMK AO2 SLP184 CB DSNT N NE T02780217 10289 20250 58002
KPBI 211653Z 14017KT 10SM SCT028CB SCT050 BKN140 28/22 A3009 RMK AO2 SLP188 CB NE-E MOV NW T02830222
KPBI 211553Z 14019G25KT 10SM SCT024 SCT055 BKN120 27/22 A3009 RMK AO2 SLP189 T02720217
KPBI 211453Z 12016KT 10SM SCT026CB SCT032 BKN180 27/22 A3008 RMK AO2 SLP186 CB NE-E MOV N T02720222 50008
KPBI 211353Z 11014KT 10SM FEW026 SCT033 BKN180 27/22 A3009 RMK AO2 SLP188 T02670222
KPBI 211253Z 11013KT 10SM SCT023 SCT031 BKN055 25/23 A3008 RMK AO2 SLP183 T02500228
KPBI 211230Z 12012KT 10SM SCT023 SCT035 BKN055 25/23 A3007 RMK AO2 T02500228 PNO $
KPBI 211153Z 12013KT 10SM SCT021 BKN028 BKN040 25/23 A3006 RMK AO2 SLP179 60015 70022 T02500228 10250 20217 53011 PNO $
KPBI 211135Z 12015KT 10SM BKN021 BKN030 BKN040 25/23 A3006 RMK AO2 T02500228 PNO $
KPBI 211053Z 14011KT 10SM SCT019TCU BKN070 OVC090 24/22 A3005 RMK AO2 RAB12E47 SLP175 TCU N-E T02440222 PNO $
KPBI 210953Z 13011KT 10SM SCT020 BKN044 BKN080 24/23 A3003 RMK AO2 RAB36E53 SLP170 T02440233 PNO $
KPBI 210853Z 12011KT 10SM SCT027 BKN044 BKN110 24/23 A3003 RMK AO2 RAE43 SLP168 P0001 60015 T02440228 55007 $
KPBI 210753Z 13007KT 10SM -RA SCT026 BKN042 OVC090 23/22 A3003 RMK AO2 PK WND 16029/0715 LTG DSNT NW RAE0659B10 SLP167 P0010 T02280222 $
KPBI 210739Z 17009KT 10SM -RA FEW028TCU BKN034 OVC090 23/21 A3003 RMK AO2 PK WND 16029/0715 RAE0659B10 TCU NE-E AND W P0010 T02280211 $
KPBI 210702Z 14007KT 10SM BKN025TCU BKN039 OVC090 23/23 A3003 RMK AO2 RAE0659 TCU S P0001 T02330228 $
KPBI 210653Z 16009KT 10SM -RA SCT023 BKN035 OVC070 23/22 A3003 RMK AO2 RAB14 SLP168 P0004 T02330222 $
KPBI 210644Z 17010G18KT 10SM -RA FEW021 BKN036 OVC085 22/21 A3003 RMK AO2 RAB14 P0004 T02220211 $
KPBI 210616Z 15017G24KT 5SM -RA BR SCT019 BKN024 OVC034 24/22 A3005 RMK AO2 RAB14 P0000 T02390217 $
KPBI 210553Z 12015KT 10SM SCT022 BKN039 BKN070 25/23 A3005 RMK AO2 RAE0458B26E40 SLP175 P0000 60000 T02500233 10256 20244 56009 $
KPBI 210547Z 12017KT 10SM SCT022 BKN039 BKN070 24/23 A3005 RMK AO2 RAE0458B26E40 P0000 $
KPBI 210532Z 11015KT 9SM -RA SCT017 BKN022 OVC070 24/24 A3005 RMK AO2 RAE0458B26 P0000 T02440239 $
KPBI 210453Z 11015KT 10SM -RA SCT022 SCT030 OVC150 25/22 A3006 RMK AO2 RAB44 SLP179 P0000 T02500217 402780217 $
KPBI 210353Z 12013KT 10SM SCT022 BKN030 BKN038 26/23 A3007 RMK AO2 SLP183 T02560228 $
KPBI 210253Z 12010KT 10SM SCT020 SCT045 BKN160 26/23 A3008 RMK AO2 RAB26E37 SLP186 P0000 60000 T02560233 51008 $
KPBI 210153Z 12013KT 10SM SCT025 OVC160 26/23 A3008 RMK AO2 SLP184 T02560228 $
KPBI 210053Z 12013KT 10SM SCT025 BKN035 OVC150 26/23 A3007 RMK AO2 SLP182 T02560228 $
KPBI 210016Z 12012KT 10SM SCT020 BKN035 OVC150 26/22 A3006 RMK AO2 T02560222 $
KPBI 202353Z 11011KT 10SM BKN020 OVC150 26/23 A3006 RMK AO2 SLP178 60000 T02560228 10272 20256 53001 $
KPBI 202253Z 12012KT 10SM BKN020 BKN065 OVC140 26/23 A3005 RMK AO2 SLP175 T02610228 $
KPBI 202236Z 12012KT 10SM BKN020 BKN070 OVC140 26/23 A3005 RMK AO2 T02610228 $